Time;durP1;ratioP1;P1;durP2;ratioP2;P2;SDS_P1;SDS_P2;PMS_P1;PMS_P2;Temp;Humidity;BMP_temperature;BMP_pressure;BME280_temperature;BME280_humidity;BME280_pressure;Samples;Min_cycle;Max_cycle;Signal;HPM_P1;HPM_P2
2021/07/26 00:00:21;;;;;;;4.97;4.53;;;;;;;;;;5010666;28;20767;-51
2021/07/26 00:02:47;;;;;;;5.77;4.27;;;;;;;;;;5010412;28;20466;-51
2021/07/26 00:05:14;;;;;;;5.27;4.63;;;;;;;;;;5010210;28;20400;-51
2021/07/26 00:07:40;;;;;;;9.33;4.87;;;;;;;;;;5010404;28;20774;-52
2021/07/26 00:10:07;;;;;;;4.20;3.90;;;;;;;;;;5010358;28;20410;-51
2021/07/26 00:12:33;;;;;;;4.20;3.80;;;;;;;;;;5010402;28;20456;-51
2021/07/26 00:15:00;;;;;;;8.50;5.67;;;;;;;;;;5010341;28;20384;-51
2021/07/26 00:17:26;;;;;;;6.87;3.90;;;;;;;;;;5010340;28;20569;-51
2021/07/26 00:19:52;;;;;;;6.90;4.40;;;;;;;;;;5012742;28;20401;-51
2021/07/26 00:22:18;;;;;;;4.70;4.30;;;;;;;;;;5013860;28;20447;-51
2021/07/26 00:24:44;;;;;;;6.77;4.90;;;;;;;;;;5013550;28;20410;-52
2021/07/26 00:27:10;;;;;;;4.77;4.37;;;;;;;;;;5013884;28;20537;-51
2021/07/26 00:29:36;;;;;;;4.50;4.10;;;;;;;;;;5013579;28;20789;-51
2021/07/26 00:32:02;;;;;;;10.83;5.00;;;;;;;;;;5013667;28;20777;-51
2021/07/26 00:34:28;;;;;;;4.77;4.40;;;;;;;;;;5013504;28;20405;-50
2021/07/26 00:36:55;;;;;;;4.23;3.93;;;;;;;;;;5013573;28;20798;-51
2021/07/26 00:39:22;;;;;;;15.03;4.37;;;;;;;;;;5013478;28;20424;-51
2021/07/26 00:41:49;;;;;;;4.70;4.30;;;;;;;;;;5013551;28;20545;-51
2021/07/26 00:44:16;;;;;;;6.50;5.90;;;;;;;;;;5013631;28;20772;-52
2021/07/26 00:46:42;;;;;;;5.53;3.60;;;;;;;;;;5013248;28;20903;-51
2021/07/26 00:49:09;;;;;;;5.10;4.33;;;;;;;;;;5013316;28;20433;-51
2021/07/26 00:51:36;;;;;;;4.73;4.03;;;;;;;;;;5013200;28;20405;-50
2021/07/26 00:54:02;;;;;;;4.43;4.03;;;;;;;;;;5013191;28;20379;-51
2021/07/26 00:56:30;;;;;;;4.63;4.23;;;;;;;;;;5013127;28;20377;-51
2021/07/26 00:58:56;;;;;;;4.53;4.23;;;;;;;;;;5013286;28;20936;-51
2021/07/26 01:01:22;;;;;;;6.00;4.13;;;;;;;;;;5012822;28;20509;-51
2021/07/26 01:03:48;;;;;;;5.07;4.07;;;;;;;;;;5012666;28;20487;-51
2021/07/26 01:06:14;;;;;;;4.50;4.10;;;;;;;;;;5013012;28;20406;-51
2021/07/26 01:08:41;;;;;;;4.43;3.30;;;;;;;;;;5013317;28;20434;-52
2021/07/26 01:11:08;;;;;;;4.07;3.77;;;;;;;;;;5013091;28;20403;-51
2021/07/26 01:13:35;;;;;;;4.43;4.03;;;;;;;;;;5013538;28;20413;-51
2021/07/26 01:16:01;;;;;;;6.07;4.37;;;;;;;;;;5012989;28;20408;-51
2021/07/26 01:18:27;;;;;;;5.27;4.70;;;;;;;;;;5013232;28;20519;-51
2021/07/26 01:20:54;;;;;;;4.10;3.70;;;;;;;;;;5012953;28;20407;-52
2021/07/26 01:23:21;;;;;;;5.33;4.33;;;;;;;;;;5012898;28;20953;-51
2021/07/26 01:25:47;;;;;;;5.63;4.10;;;;;;;;;;5012717;28;20403;-51
2021/07/26 01:28:17;;;;;;;6.03;3.97;;;;;;;;;;5012544;28;20447;-51
2021/07/26 01:30:43;;;;;;;4.93;3.60;;;;;;;;;;5012980;28;20810;-51
2021/07/26 01:33:10;;;;;;;4.20;3.90;;;;;;;;;;5013017;28;20407;-51
2021/07/26 01:35:36;;;;;;;6.60;4.23;;;;;;;;;;5012402;28;20432;-50
2021/07/26 01:38:03;;;;;;;8.80;4.50;;;;;;;;;;5012455;28;20439;-51
2021/07/26 01:40:29;;;;;;;4.33;3.97;;;;;;;;;;5012564;28;20435;-51
2021/07/26 01:43:03;;;;;;;4.60;4.00;;;;;;;;;;5012258;28;20480;-51
2021/07/26 01:45:32;;;;;;;6.50;4.40;;;;;;;;;;5012292;28;20362;-51
2021/07/26 01:48:11;;;;;;;3.73;3.43;;;;;;;;;;5012096;28;20423;-51
2021/07/26 01:51:16;;;;;;;3.77;3.47;;;;;;;;;;5012510;28;20806;-51
2021/07/26 01:53:44;;;;;;;4.30;3.90;;;;;;;;;;4951199;29;20411;-50
2021/07/26 01:56:10;;;;;;;5.07;4.07;;;;;;;;;;4951089;29;20493;-51
2021/07/26 01:58:36;;;;;;;4.63;3.80;;;;;;;;;;4980698;28;20490;-51
2021/07/26 02:01:02;;;;;;;4.37;4.07;;;;;;;;;;5012029;28;20386;-51
2021/07/26 02:03:30;;;;;;;7.37;4.00;;;;;;;;;;5011936;28;20410;-51
2021/07/26 02:05:56;;;;;;;5.87;4.13;;;;;;;;;;5011969;28;20791;-51
2021/07/26 02:08:22;;;;;;;4.03;3.60;;;;;;;;;;5011913;28;20878;-51
2021/07/26 02:10:48;;;;;;;4.00;3.70;;;;;;;;;;5012384;28;20495;-51
2021/07/26 02:13:14;;;;;;;4.50;3.60;;;;;;;;;;5011701;28;20403;-51
2021/07/26 02:15:40;;;;;;;4.00;3.70;;;;;;;;;;5011562;28;20416;-50
2021/07/26 02:18:06;;;;;;;6.73;4.90;;;;;;;;;;5011625;28;20903;-51
2021/07/26 02:20:32;;;;;;;6.07;4.00;;;;;;;;;;5011760;28;20411;-51
2021/07/26 02:22:58;;;;;;;4.30;3.67;;;;;;;;;;5011661;28;20459;-51
2021/07/26 02:25:24;;;;;;;6.40;3.93;;;;;;;;;;5011501;28;20582;-51
2021/07/26 02:27:50;;;;;;;6.00;3.73;;;;;;;;;;5011672;28;20428;-51
2021/07/26 02:30:16;;;;;;;4.27;3.70;;;;;;;;;;5011401;28;20411;-51
2021/07/26 02:32:42;;;;;;;4.80;4.40;;;;;;;;;;5011618;28;20392;-51
2021/07/26 02:35:09;;;;;;;5.27;4.43;;;;;;;;;;5011252;28;20435;-51
2021/07/26 02:37:35;;;;;;;3.70;3.50;;;;;;;;;;5011430;28;20893;-51
2021/07/26 02:40:01;;;;;;;3.93;3.63;;;;;;;;;;5011355;28;20403;-50
2021/07/26 02:42:27;;;;;;;4.67;4.17;;;;;;;;;;5011039;28;20466;-51
2021/07/26 02:44:53;;;;;;;4.80;4.40;;;;;;;;;;5011123;28;20403;-51
2021/07/26 02:47:20;;;;;;;3.80;3.40;;;;;;;;;;5011483;28;20403;-51
2021/07/26 02:49:47;;;;;;;19.97;14.63;;;;;;;;;;5011283;28;20430;-51
2021/07/26 02:52:13;;;;;;;9.17;3.40;;;;;;;;;;5011257;28;20411;-51
2021/07/26 02:54:39;;;;;;;36.47;5.73;;;;;;;;;;5010919;28;20469;-51
2021/07/26 02:57:05;;;;;;;41.37;5.27;;;;;;;;;;5011273;28;20411;-51
2021/07/26 02:59:32;;;;;;;180.60;12.93;;;;;;;;;;5011182;28;20413;-51
2021/07/26 03:01:58;;;;;;;3.33;3.13;;;;;;;;;;5011652;28;20454;-50
2021/07/26 03:04:24;;;;;;;258.67;23.67;;;;;;;;;;5011192;28;20457;-51
2021/07/26 03:06:50;;;;;;;3.97;2.70;;;;;;;;;;5011214;28;20418;-51
2021/07/26 03:09:16;;;;;;;132.93;12.03;;;;;;;;;;5011076;28;20423;-51
2021/07/26 03:11:42;;;;;;;217.80;16.13;;;;;;;;;;5011048;28;20419;-51
2021/07/26 03:14:08;;;;;;;302.23;39.63;;;;;;;;;;5011203;28;20417;-50
2021/07/26 03:16:34;;;;;;;49.27;3.47;;;;;;;;;;5010826;28;20898;-51
2021/07/26 03:19:00;;;;;;;543.50;106.57;;;;;;;;;;5010941;28;20432;-51
2021/07/26 03:21:26;;;;;;;65.07;6.60;;;;;;;;;;5010879;28;20451;-51
2021/07/26 03:23:52;;;;;;;71.70;14.63;;;;;;;;;;5010873;28;20392;-50
2021/07/26 03:26:18;;;;;;;68.70;8.90;;;;;;;;;;5010657;28;20400;-50
2021/07/26 03:28:45;;;;;;;91.67;45.90;;;;;;;;;;5010598;28;20439;-51
2021/07/26 03:31:11;;;;;;;82.13;46.13;;;;;;;;;;5010849;28;20410;-51
2021/07/26 03:33:37;;;;;;;68.70;20.13;;;;;;;;;;5010851;28;20414;-50
2021/07/26 03:36:03;;;;;;;70.77;9.20;;;;;;;;;;5010520;28;20457;-51
2021/07/26 03:38:29;;;;;;;69.63;8.30;;;;;;;;;;5011117;28;20435;-51
2021/07/26 03:40:55;;;;;;;69.50;8.37;;;;;;;;;;5010516;28;20802;-51
2021/07/26 03:43:21;;;;;;;70.83;7.93;;;;;;;;;;5010575;28;20386;-51
2021/07/26 03:45:47;;;;;;;73.03;6.90;;;;;;;;;;5010611;28;20415;-51
2021/07/26 03:48:13;;;;;;;69.60;7.00;;;;;;;;;;5010692;28;20427;-51
2021/07/26 03:50:40;;;;;;;75.87;7.37;;;;;;;;;;5010686;28;20889;-51
2021/07/26 03:53:06;;;;;;;68.33;6.20;;;;;;;;;;5010482;28;20888;-51
2021/07/26 03:55:33;;;;;;;67.63;7.80;;;;;;;;;;5014237;28;20493;-51
2021/07/26 03:57:59;;;;;;;68.50;6.53;;;;;;;;;;5014359;28;20450;-51
2021/07/26 04:00:26;;;;;;;67.17;6.90;;;;;;;;;;5014428;28;20406;-51
2021/07/26 04:05:45;;;;;;;67.10;5.10;;;;;;;;;;5014362;28;20401;-51
2021/07/26 04:08:17;;;;;;;65.90;5.13;;;;;;;;;;5014377;28;20420;-51
2021/07/26 04:10:50;;;;;;;66.20;5.37;;;;;;;;;;5014334;28;20539;-52
2021/07/26 04:13:16;;;;;;;66.70;5.17;;;;;;;;;;5014048;28;20401;-51
2021/07/26 04:15:45;;;;;;;66.30;6.37;;;;;;;;;;5014076;28;20410;-51
2021/07/26 04:18:11;;;;;;;65.90;6.17;;;;;;;;;;5013880;28;20517;-51
2021/07/26 04:20:38;;;;;;;65.43;5.57;;;;;;;;;;5014122;28;20432;-51
2021/07/26 04:23:04;;;;;;;65.20;5.00;;;;;;;;;;5013867;28;20519;-51
2021/07/26 04:25:29;;;;;;;65.87;6.23;;;;;;;;;;5013823;28;20502;-51
2021/07/26 04:27:55;;;;;;;65.53;5.83;;;;;;;;;;5013702;28;20438;-50
2021/07/26 04:30:21;;;;;;;67.17;7.77;;;;;;;;;;5014272;28;20832;-51
2021/07/26 04:32:48;;;;;;;66.10;7.53;;;;;;;;;;5013773;28;20410;-51
2021/07/26 04:35:17;;;;;;;65.20;6.10;;;;;;;;;;5013975;28;20490;-51
2021/07/26 04:37:43;;;;;;;68.33;7.17;;;;;;;;;;5013883;28;20411;-52
2021/07/26 04:40:10;;;;;;;64.60;6.47;;;;;;;;;;5013814;28;20910;-51
2021/07/26 04:42:37;;;;;;;65.73;7.47;;;;;;;;;;5013467;28;20871;-51
2021/07/26 04:45:04;;;;;;;66.90;8.10;;;;;;;;;;5013419;28;20430;-51
2021/07/26 04:47:30;;;;;;;67.77;7.93;;;;;;;;;;5013468;28;20403;-51
2021/07/26 04:49:56;;;;;;;66.90;7.63;;;;;;;;;;5013615;28;20489;-51
2021/07/26 04:52:23;;;;;;;66.67;6.73;;;;;;;;;;5013381;28;20414;-51
2021/07/26 04:54:49;;;;;;;69.83;7.70;;;;;;;;;;5013293;28;20403;-51
2021/07/26 04:57:15;;;;;;;66.23;7.63;;;;;;;;;;5013366;28;20482;-51
2021/07/26 04:59:41;;;;;;;66.17;7.40;;;;;;;;;;5013155;28;20426;-51
2021/07/26 05:02:07;;;;;;;64.93;5.93;;;;;;;;;;5013084;28;20455;-51
2021/07/26 05:04:33;;;;;;;70.60;6.73;;;;;;;;;;5012576;28;20371;-51
2021/07/26 05:07:01;;;;;;;66.70;7.80;;;;;;;;;;5013124;28;20435;-51
2021/07/26 05:09:27;;;;;;;65.13;5.40;;;;;;;;;;5013012;28;20793;-51
2021/07/26 05:11:52;;;;;;;67.60;6.00;;;;;;;;;;5012921;28;20408;-51
2021/07/26 05:14:18;;;;;;;65.10;6.13;;;;;;;;;;5012793;28;20411;-51
2021/07/26 05:16:45;;;;;;;81.20;8.37;;;;;;;;;;5012761;28;20411;-51
2021/07/26 05:19:11;;;;;;;64.93;6.30;;;;;;;;;;5012727;28;20955;-52
2021/07/26 05:21:37;;;;;;;66.60;7.13;;;;;;;;;;5012909;28;20494;-50
2021/07/26 05:24:03;;;;;;;65.67;6.90;;;;;;;;;;5012652;28;20397;-51
2021/07/26 05:26:29;;;;;;;65.80;6.70;;;;;;;;;;5012512;28;20486;-51
2021/07/26 05:28:55;;;;;;;66.30;7.30;;;;;;;;;;5012874;28;20620;-50
2021/07/26 05:31:21;;;;;;;66.80;8.20;;;;;;;;;;5012605;28;20403;-50
2021/07/26 05:33:47;;;;;;;66.30;7.33;;;;;;;;;;5012472;28;20461;-50
2021/07/26 05:36:13;;;;;;;65.63;7.20;;;;;;;;;;5012436;28;20411;-50
2021/07/26 05:38:39;;;;;;;66.07;7.50;;;;;;;;;;5012419;28;20431;-49
2021/07/26 05:41:07;;;;;;;66.60;7.43;;;;;;;;;;5012401;28;20833;-50
2021/07/26 05:43:33;;;;;;;66.27;7.40;;;;;;;;;;5012183;28;20466;-50
2021/07/26 05:46:00;;;;;;;65.17;6.50;;;;;;;;;;5012451;28;20402;-50
2021/07/26 05:48:26;;;;;;;67.17;7.13;;;;;;;;;;5012376;28;20530;-49
2021/07/26 05:50:52;;;;;;;65.87;6.87;;;;;;;;;;5012375;28;20410;-49
2021/07/26 05:53:18;;;;;;;66.87;7.57;;;;;;;;;;5012196;28;20405;-49
2021/07/26 05:55:44;;;;;;;65.37;6.53;;;;;;;;;;5012506;28;20409;-49
2021/07/26 05:58:10;;;;;;;68.67;7.57;;;;;;;;;;5012032;28;20431;-50
2021/07/26 06:00:44;;;;;;;66.70;7.90;;;;;;;;;;5012142;28;20410;-50
2021/07/26 06:03:10;;;;;;;66.20;6.00;;;;;;;;;;5011970;28;20497;-49
2021/07/26 06:05:37;;;;;;;66.80;6.83;;;;;;;;;;5011885;28;20401;-49
2021/07/26 06:08:03;;;;;;;66.57;7.73;;;;;;;;;;5011923;28;20430;-49
2021/07/26 06:10:30;;;;;;;65.80;6.83;;;;;;;;;;5011991;28;20440;-49
2021/07/26 06:12:56;;;;;;;65.90;7.33;;;;;;;;;;5011862;28;20473;-51
2021/07/26 06:15:22;;;;;;;65.37;6.73;;;;;;;;;;5012854;28;20403;-51
2021/07/26 06:17:48;;;;;;;66.87;7.73;;;;;;;;;;5010656;28;20800;-51
2021/07/26 06:20:14;;;;;;;66.80;7.23;;;;;;;;;;5011382;28;20436;-51
2021/07/26 06:22:40;;;;;;;66.70;7.20;;;;;;;;;;5011072;28;20454;-51
2021/07/26 06:25:09;;;;;;;65.87;6.63;;;;;;;;;;5011130;28;20433;-51
2021/07/26 06:27:35;;;;;;;66.40;6.90;;;;;;;;;;5011128;28;20410;-51
2021/07/26 06:30:01;;;;;;;65.20;5.67;;;;;;;;;;5011220;28;20538;-51
2021/07/26 06:32:28;;;;;;;65.47;6.20;;;;;;;;;;5011545;28;20755;-51
2021/07/26 06:34:54;;;;;;;149.63;64.97;;;;;;;;;;5010963;28;20509;-51
2021/07/26 06:37:20;;;;;;;143.97;34.00;;;;;;;;;;5011026;28;20493;-52
2021/07/26 06:39:46;;;;;;;134.27;40.70;;;;;;;;;;5009506;28;20434;-52
2021/07/26 06:42:12;;;;;;;66.50;7.10;;;;;;;;;;5010961;28;20454;-51
2021/07/26 06:44:39;;;;;;;66.63;6.83;;;;;;;;;;5010589;28;20490;-52
2021/07/26 06:47:05;;;;;;;66.03;6.97;;;;;;;;;;5010992;28;20533;-51
2021/07/26 06:49:31;;;;;;;65.10;6.23;;;;;;;;;;5011273;28;20890;-52
2021/07/26 06:51:57;;;;;;;64.77;5.10;;;;;;;;;;5011222;28;20829;-51
2021/07/26 06:54:24;;;;;;;65.97;6.40;;;;;;;;;;5010973;28;20477;-51
2021/07/26 06:56:49;;;;;;;65.47;6.10;;;;;;;;;;5011183;28;20411;-52
2021/07/26 06:59:15;;;;;;;65.50;6.87;;;;;;;;;;5011015;28;20477;-51
2021/07/26 07:01:42;;;;;;;66.87;6.97;;;;;;;;;;5011004;28;20549;-52
2021/07/26 07:04:08;;;;;;;65.60;5.77;;;;;;;;;;5011110;28;20486;-51
2021/07/26 07:06:34;;;;;;;65.10;5.80;;;;;;;;;;5010969;28;20840;-51
2021/07/26 07:09:00;;;;;;;65.60;6.13;;;;;;;;;;5010917;28;20812;-52
2021/07/26 07:11:26;;;;;;;66.17;5.70;;;;;;;;;;5011020;28;20410;-51
2021/07/26 07:13:57;;;;;;;65.10;5.40;;;;;;;;;;5010944;28;20442;-51
2021/07/26 07:16:23;;;;;;;64.87;4.40;;;;;;;;;;5010825;28;20469;-51
2021/07/26 07:18:50;;;;;;;65.67;6.10;;;;;;;;;;5010909;28;20471;-51
2021/07/26 07:21:20;;;;;;;64.40;4.47;;;;;;;;;;5011156;28;20457;-51
2021/07/26 07:23:47;;;;;;;67.10;6.00;;;;;;;;;;5010797;28;20403;-51
2021/07/26 07:26:13;;;;;;;65.60;6.00;;;;;;;;;;5010764;28;20486;-51
2021/07/26 07:28:40;;;;;;;65.07;5.00;;;;;;;;;;5013331;28;20528;-51
2021/07/26 07:31:06;;;;;;;65.80;6.30;;;;;;;;;;5014930;28;20413;-51
2021/07/26 07:33:32;;;;;;;64.90;5.10;;;;;;;;;;5014826;28;20406;-51
2021/07/26 07:36:04;;;;;;;65.30;5.97;;;;;;;;;;5014516;28;20402;-51
2021/07/26 07:38:30;;;;;;;65.17;6.27;;;;;;;;;;5014752;28;20478;-52
2021/07/26 07:40:58;;;;;;;64.67;5.00;;;;;;;;;;5014897;28;20513;-51
2021/07/26 07:43:24;;;;;;;64.80;4.90;;;;;;;;;;5014729;28;20415;-52
2021/07/26 07:45:50;;;;;;;65.00;4.80;;;;;;;;;;5014412;28;20407;-52
2021/07/26 07:48:18;;;;;;;67.77;5.50;;;;;;;;;;5014507;28;20478;-52
2021/07/26 07:50:44;;;;;;;64.57;4.23;;;;;;;;;;5014477;28;20762;-51
2021/07/26 07:53:10;;;;;;;66.03;4.73;;;;;;;;;;5014411;28;20405;-52
2021/07/26 07:55:36;;;;;;;65.50;5.33;;;;;;;;;;5014132;28;20956;-52
2021/07/26 07:58:03;;;;;;;65.57;4.63;;;;;;;;;;5014428;28;20457;-51
2021/07/26 08:00:29;;;;;;;65.03;4.17;;;;;;;;;;5014486;28;20410;-52
2021/07/26 08:02:56;;;;;;;65.37;4.10;;;;;;;;;;5014276;28;20901;-52
2021/07/26 08:05:22;;;;;;;65.00;4.40;;;;;;;;;;5014119;28;20480;-52
2021/07/26 08:07:48;;;;;;;67.10;5.30;;;;;;;;;;5014242;28;20953;-51
2021/07/26 08:10:14;;;;;;;65.47;4.37;;;;;;;;;;5014267;28;20482;-51
2021/07/26 08:12:40;;;;;;;65.30;4.20;;;;;;;;;;5014214;28;21013;-52
2021/07/26 08:15:07;;;;;;;64.97;3.57;;;;;;;;;;5014009;28;20457;-52
2021/07/26 08:17:34;;;;;;;65.10;3.63;;;;;;;;;;5012756;28;20906;-52
2021/07/26 08:20:03;;;;;;;64.77;3.00;;;;;;;;;;5014002;28;20399;-51
2021/07/26 08:22:29;;;;;;;65.80;3.50;;;;;;;;;;5013725;28;20464;-51
2021/07/26 08:24:55;;;;;;;65.67;3.10;;;;;;;;;;5014047;28;20475;-52
2021/07/26 08:27:21;;;;;;;64.77;2.90;;;;;;;;;;5013734;28;20569;-51
2021/07/26 08:29:46;;;;;;;66.00;3.73;;;;;;;;;;5013589;28;20442;-52
2021/07/26 08:32:12;;;;;;;65.87;2.93;;;;;;;;;;5013479;28;20399;-52
2021/07/26 08:34:38;;;;;;;65.70;3.13;;;;;;;;;;5013519;28;20403;-51
2021/07/26 08:37:04;;;;;;;66.80;3.50;;;;;;;;;;5013584;28;20435;-51
2021/07/26 08:39:31;;;;;;;66.27;3.10;;;;;;;;;;5012837;28;20427;-51
2021/07/26 08:41:57;;;;;;;67.97;4.17;;;;;;;;;;5013535;28;20544;-51
2021/07/26 08:44:23;;;;;;;65.23;3.07;;;;;;;;;;5013320;28;20911;-52
2021/07/26 08:46:49;;;;;;;66.10;3.20;;;;;;;;;;5013199;28;20395;-51
2021/07/26 08:49:15;;;;;;;66.47;3.70;;;;;;;;;;5013295;28;20434;-51
2021/07/26 08:51:42;;;;;;;66.37;3.77;;;;;;;;;;5013142;28;20400;-52
2021/07/26 08:54:10;;;;;;;65.60;3.60;;;;;;;;;;5013307;28;20856;-51
2021/07/26 08:56:36;;;;;;;65.23;3.47;;;;;;;;;;5013111;28;20403;-51
2021/07/26 08:59:01;;;;;;;65.87;3.60;;;;;;;;;;5013203;28;20499;-51
2021/07/26 09:01:28;;;;;;;65.90;3.20;;;;;;;;;;5012891;28;20481;-51
2021/07/26 09:03:54;;;;;;;65.47;3.00;;;;;;;;;;5013079;28;20400;-52
2021/07/26 09:06:20;;;;;;;65.70;3.67;;;;;;;;;;5013021;28;20410;-51
2021/07/26 09:08:46;;;;;;;66.30;4.40;;;;;;;;;;5012920;28;20930;-51
2021/07/26 09:11:12;;;;;;;65.27;3.53;;;;;;;;;;5013047;28;20714;-51
2021/07/26 09:13:44;;;;;;;66.30;3.90;;;;;;;;;;5013218;28;20407;-51
2021/07/26 09:16:13;;;;;;;66.20;3.47;;;;;;;;;;5012838;28;20703;-52
2021/07/26 09:18:39;;;;;;;65.53;3.40;;;;;;;;;;5012645;28;20425;-52
2021/07/26 09:21:05;;;;;;;65.90;3.33;;;;;;;;;;5012657;28;20399;-52
2021/07/26 09:23:32;;;;;;;65.90;3.13;;;;;;;;;;5012561;28;20383;-53
2021/07/26 09:26:00;;;;;;;65.37;2.73;;;;;;;;;;5012632;28;20402;-52
2021/07/26 09:28:32;;;;;;;66.00;3.10;;;;;;;;;;5012338;28;20493;-51
2021/07/26 09:30:57;;;;;;;66.40;3.43;;;;;;;;;;5012582;28;20494;-51
2021/07/26 09:33:23;;;;;;;66.10;3.27;;;;;;;;;;5012423;28;20494;-51
2021/07/26 09:36:06;;;;;;;66.53;3.53;;;;;;;;;;5012572;28;20405;-51
2021/07/26 09:38:33;;;;;;;65.37;3.10;;;;;;;;;;5012408;28;20257;-52
2021/07/26 09:41:00;;;;;;;65.40;3.00;;;;;;;;;;5012297;28;20408;-52
2021/07/26 09:43:26;;;;;;;65.67;3.10;;;;;;;;;;5012379;28;20458;-51
2021/07/26 09:45:56;;;;;;;65.70;3.37;;;;;;;;;;5012600;28;20898;-51
2021/07/26 09:48:27;;;;;;;68.40;4.30;;;;;;;;;;5012316;28;20426;-52
2021/07/26 09:50:53;;;;;;;65.30;3.73;;;;;;;;;;5011619;28;20494;-51
2021/07/26 09:53:23;;;;;;;65.30;3.10;;;;;;;;;;5011787;28;20399;-51
2021/07/26 09:55:53;;;;;;;65.50;3.43;;;;;;;;;;5011946;28;20403;-51
2021/07/26 09:58:20;;;;;;;65.37;3.83;;;;;;;;;;5012339;28;20423;-51
2021/07/26 10:00:46;;;;;;;65.97;3.33;;;;;;;;;;5012106;28;20403;-51
2021/07/26 10:03:14;;;;;;;65.90;3.93;;;;;;;;;;5011967;28;20455;-52
2021/07/26 10:05:41;;;;;;;65.43;3.30;;;;;;;;;;5011810;28;20781;-51
2021/07/26 10:08:07;;;;;;;65.67;3.40;;;;;;;;;;5012453;28;20510;-52
2021/07/26 10:10:34;;;;;;;65.57;3.30;;;;;;;;;;5011919;28;20399;-51
2021/07/26 10:13:00;;;;;;;64.90;3.50;;;;;;;;;;5011954;28;20399;-51
2021/07/26 10:15:28;;;;;;;65.03;3.10;;;;;;;;;;5011673;28;20410;-51
2021/07/26 10:17:54;;;;;;;66.07;4.03;;;;;;;;;;5012015;28;20423;-51
2021/07/26 10:20:27;;;;;;;64.80;2.80;;;;;;;;;;5011665;28;20414;-51
2021/07/26 10:22:59;;;;;;;65.80;3.60;;;;;;;;;;5011734;28;20490;-51
2021/07/26 10:25:30;;;;;;;64.77;3.00;;;;;;;;;;5011596;28;20485;-52
2021/07/26 10:27:58;;;;;;;65.40;3.17;;;;;;;;;;5012040;28;20813;-52
2021/07/26 10:30:31;;;;;;;64.90;2.80;;;;;;;;;;5011832;28;20400;-52
2021/07/26 10:32:59;;;;;;;65.40;3.47;;;;;;;;;;5011654;28;20407;-52
2021/07/26 10:35:57;;;;;;;65.47;3.13;;;;;;;;;;5011347;28;20407;-52
2021/07/26 10:38:42;;;;;;;65.77;3.60;;;;;;;;;;4978579;28;20443;-51
2021/07/26 10:41:08;;;;;;;65.37;3.17;;;;;;;;;;5011306;28;20395;-52
2021/07/26 10:43:52;;;;;;;65.37;3.00;;;;;;;;;;5011272;28;20403;-51
2021/07/26 10:46:18;;;;;;;65.47;3.10;;;;;;;;;;5011119;28;20438;-51
2021/07/26 10:48:53;;;;;;;65.70;3.60;;;;;;;;;;5011526;28;20450;-52
2021/07/26 10:51:38;;;;;;;65.27;3.10;;;;;;;;;;5011273;28;20882;-51
2021/07/26 10:54:05;;;;;;;66.07;3.93;;;;;;;;;;5009599;28;20405;-51
2021/07/26 10:56:50;;;;;;;64.87;2.97;;;;;;;;;;5011120;28;20434;-52
2021/07/26 10:59:16;;;;;;;65.70;3.40;;;;;;;;;;5011040;28;20426;-52
2021/07/26 11:01:56;;;;;;;65.37;2.90;;;;;;;;;;5010866;28;20968;-52
2021/07/26 11:04:41;;;;;;;65.47;3.00;;;;;;;;;;5010640;28;20399;-51
2021/07/26 11:07:07;;;;;;;64.50;2.77;;;;;;;;;;5011069;28;20388;-52
2021/07/26 11:09:40;;;;;;;66.30;3.50;;;;;;;;;;5010907;28;20419;-52
2021/07/26 11:12:06;;;;;;;65.17;3.00;;;;;;;;;;5010875;28;20936;-52
2021/07/26 11:14:33;;;;;;;65.00;2.80;;;;;;;;;;5010669;28;20522;-52
2021/07/26 11:17:04;;;;;;;65.87;3.73;;;;;;;;;;5011090;28;20483;-51
2021/07/26 11:19:34;;;;;;;65.80;3.30;;;;;;;;;;5010984;28;20427;-52
2021/07/26 11:22:00;;;;;;;65.37;2.97;;;;;;;;;;5010482;28;21030;-52
2021/07/26 11:24:42;;;;;;;65.87;2.90;;;;;;;;;;5010724;28;20429;-51
2021/07/26 11:27:08;;;;;;;65.47;2.73;;;;;;;;;;5010689;28;20736;-52
2021/07/26 11:29:34;;;;;;;65.77;2.90;;;;;;;;;;5011248;28;20835;-53
2021/07/26 11:32:01;;;;;;;65.50;2.90;;;;;;;;;;5010501;28;20411;-53
2021/07/26 11:34:30;;;;;;;66.17;3.00;;;;;;;;;;5010630;28;20422;-53
2021/07/26 11:37:09;;;;;;;65.87;2.87;;;;;;;;;;5010702;28;20418;-53
2021/07/26 11:39:47;;;;;;;66.00;2.73;;;;;;;;;;5010561;28;20442;-51
2021/07/26 11:42:16;;;;;;;65.87;2.60;;;;;;;;;;5010543;28;20550;-53
2021/07/26 11:44:43;;;;;;;65.67;2.60;;;;;;;;;;5010624;28;20405;-52
2021/07/26 11:47:09;;;;;;;65.53;2.60;;;;;;;;;;5010780;28;20399;-53
2021/07/26 11:49:35;;;;;;;65.77;2.70;;;;;;;;;;5010745;28;20945;-51
2021/07/26 11:52:05;;;;;;;65.80;2.47;;;;;;;;;;5010789;28;20647;-53
2021/07/26 11:54:31;;;;;;;65.77;2.60;;;;;;;;;;5010893;28;20449;-52
2021/07/26 11:57:07;;;;;;;65.47;2.60;;;;;;;;;;5010778;28;20439;-51
2021/07/26 11:59:34;;;;;;;65.97;2.80;;;;;;;;;;5010628;28;20626;-54
2021/07/26 12:02:24;;;;;;;65.40;2.90;;;;;;;;;;5010579;28;20957;-51
2021/07/26 12:04:50;;;;;;;65.33;2.70;;;;;;;;;;5002561;28;20942;-52
2021/07/26 12:07:16;;;;;;;66.10;2.90;;;;;;;;;;5010565;28;20399;-52
2021/07/26 12:09:49;;;;;;;65.17;2.50;;;;;;;;;;5010388;28;20450;-51
2021/07/26 12:12:16;;;;;;;65.27;2.80;;;;;;;;;;5010538;28;20407;-52
2021/07/26 12:14:43;;;;;;;65.17;2.30;;;;;;;;;;5011075;28;20407;-52
2021/07/26 12:17:10;;;;;;;66.57;2.93;;;;;;;;;;5013929;28;20754;-53
2021/07/26 12:19:40;;;;;;;65.00;2.60;;;;;;;;;;5014096;28;20429;-52
2021/07/26 12:22:23;;;;;;;65.53;2.50;;;;;;;;;;5013903;28;21027;-52
2021/07/26 12:24:58;;;;;;;65.00;2.70;;;;;;;;;;5013875;28;20457;-53
2021/07/26 12:27:36;;;;;;;65.27;2.87;;;;;;;;;;5013856;28;20875;-53
2021/07/26 12:30:06;;;;;;;65.17;2.60;;;;;;;;;;5013819;28;20821;-52
2021/07/26 12:32:47;;;;;;;65.63;2.57;;;;;;;;;;5013720;28;20887;-54
2021/07/26 12:35:19;;;;;;;66.47;3.10;;;;;;;;;;5013495;28;20410;-53
2021/07/26 12:38:04;;;;;;;65.30;2.10;;;;;;;;;;5013705;28;20407;-53
2021/07/26 12:40:32;;;;;;;65.87;2.77;;;;;;;;;;5013617;28;20419;-52
2021/07/26 12:43:08;;;;;;;66.80;2.43;;;;;;;;;;5013504;28;20459;-51
2021/07/26 12:45:34;;;;;;;65.17;2.90;;;;;;;;;;5013274;28;20890;-51
2021/07/26 12:48:10;;;;;;;65.27;3.00;;;;;;;;;;5013470;28;20466;-51
2021/07/26 12:50:38;;;;;;;66.10;3.17;;;;;;;;;;5013078;28;20490;-51
2021/07/26 12:53:04;;;;;;;66.23;3.47;;;;;;;;;;5012944;28;20410;-53
2021/07/26 12:55:31;;;;;;;65.57;2.50;;;;;;;;;;5014746;28;20411;-50
2021/07/26 12:57:57;;;;;;;65.43;2.37;;;;;;;;;;5013944;28;20435;-52
2021/07/26 13:00:24;;;;;;;65.93;2.83;;;;;;;;;;5014586;28;20407;-51
2021/07/26 13:02:50;;;;;;;65.97;3.33;;;;;;;;;;5014791;28;20839;-51
2021/07/26 13:05:16;;;;;;;64.97;2.43;;;;;;;;;;5012147;28;20882;-51
2021/07/26 13:07:43;;;;;;;64.70;2.60;;;;;;;;;;4996480;28;20442;-53
2021/07/26 13:10:09;;;;;;;64.80;2.70;;;;;;;;;;4994812;28;20451;-51
2021/07/26 13:12:35;;;;;;;66.17;3.87;;;;;;;;;;4997496;28;20431;-52
2021/07/26 13:15:03;;;;;;;65.60;3.10;;;;;;;;;;4998368;28;20446;-52
2021/07/26 13:17:29;;;;;;;64.90;3.30;;;;;;;;;;5010877;28;20469;-49
2021/07/26 13:19:55;;;;;;;65.87;3.50;;;;;;;;;;5011180;28;20426;-49
2021/07/26 13:22:21;;;;;;;65.57;3.30;;;;;;;;;;5012635;28;20463;-49
2021/07/26 13:24:47;;;;;;;66.20;4.03;;;;;;;;;;5012641;28;20900;-52
2021/07/26 13:27:13;;;;;;;66.20;3.90;;;;;;;;;;5012335;28;20486;-49
2021/07/26 13:29:39;;;;;;;66.17;4.13;;;;;;;;;;5010992;28;20482;-49
2021/07/26 13:32:05;;;;;;;65.43;4.13;;;;;;;;;;5012227;28;20815;-51
2021/07/26 13:34:31;;;;;;;67.10;4.63;;;;;;;;;;5012451;28;20411;-49
2021/07/26 13:36:58;;;;;;;66.70;4.77;;;;;;;;;;5012518;28;20482;-49
2021/07/26 13:39:24;;;;;;;66.00;3.93;;;;;;;;;;5012473;28;20431;-50
2021/07/26 13:41:54;;;;;;;65.67;4.33;;;;;;;;;;5012266;28;20524;-50
2021/07/26 13:44:20;;;;;;;65.57;4.50;;;;;;;;;;5012242;28;20403;-50
2021/07/26 13:46:46;;;;;;;65.80;4.07;;;;;;;;;;5012051;28;20747;-50
2021/07/26 13:49:12;;;;;;;65.87;4.40;;;;;;;;;;5012361;28;20442;-51
2021/07/26 13:51:38;;;;;;;66.13;5.17;;;;;;;;;;5012094;28;20411;-51
2021/07/26 13:54:04;;;;;;;66.90;4.53;;;;;;;;;;5012164;28;20422;-52
2021/07/26 13:56:30;;;;;;;66.83;4.90;;;;;;;;;;5011966;28;20439;-49
2021/07/26 13:58:56;;;;;;;65.80;4.43;;;;;;;;;;5011920;28;20423;-50
2021/07/26 14:01:22;;;;;;;65.47;4.10;;;;;;;;;;5009776;28;20496;-52
2021/07/26 14:03:48;;;;;;;66.27;4.70;;;;;;;;;;5016607;28;20399;-48
2021/07/26 14:06:14;;;;;;;66.80;5.47;;;;;;;;;;5008132;28;20412;-51
2021/07/26 14:08:41;;;;;;;65.93;4.00;;;;;;;;;;5012047;28;20510;-51
2021/07/26 14:11:06;;;;;;;66.47;5.40;;;;;;;;;;5012025;28;20537;-52
2021/07/26 14:13:32;;;;;;;65.97;4.80;;;;;;;;;;5011921;28;20427;-51
2021/07/26 14:15:59;;;;;;;65.57;4.40;;;;;;;;;;5011429;28;20443;-50
2021/07/26 14:18:25;;;;;;;67.40;5.00;;;;;;;;;;5011766;28;20431;-52
2021/07/26 14:20:53;;;;;;;65.80;4.47;;;;;;;;;;5011789;28;20465;-51
2021/07/26 14:23:19;;;;;;;66.00;4.70;;;;;;;;;;5011568;28;20510;-51
2021/07/26 14:25:45;;;;;;;66.00;4.70;;;;;;;;;;5011510;28;20427;-51
2021/07/26 14:28:11;;;;;;;66.27;4.70;;;;;;;;;;5011525;28;20709;-51
2021/07/26 14:30:38;;;;;;;66.60;5.00;;;;;;;;;;5012069;28;20399;-50
2021/07/26 14:33:05;;;;;;;65.60;4.23;;;;;;;;;;5011415;28;20976;-50
2021/07/26 14:35:32;;;;;;;66.47;4.60;;;;;;;;;;5011426;28;20765;-50